Time;durP1;ratioP1;P1;durP2;ratioP2;P2;SDS_P1;SDS_P2;PMS_P1;PMS_P2;Temp;Humidity;BMP_temperature;BMP_pressure;BME280_temperature;BME280_humidity;BME280_pressure;Samples;Min_cycle;Max_cycle;Signal;HPM_P1;HPM_P2
2022/08/05 00:00:17;;;;;;;4.82;2.15;;;18.70;99.90;;;;;;5056565;28;20043;-70
2022/08/05 00:02:43;;;;;;;4.95;2.00;;;18.80;99.90;;;;;;5074550;28;20119;-70
2022/08/05 00:05:09;;;;;;;4.68;1.85;;;18.70;99.90;;;;;;5039578;28;20151;-70
2022/08/05 00:07:35;;;;;;;6.82;2.38;;;20.30;99.90;;;;;;5056396;28;20147;-70
2022/08/05 00:10:00;;;;;;;6.72;2.08;;;19.60;99.90;;;;;;5074836;28;20052;-70
2022/08/05 00:12:26;;;;;;;7.30;2.22;;;18.90;99.90;;;;;;5056247;28;20035;-70
2022/08/05 00:14:51;;;;;;;7.45;2.42;;;18.90;99.90;;;;;;5055998;28;20117;-70
2022/08/05 00:17:17;;;;;;;7.15;2.25;;;18.70;99.90;;;;;;5056454;28;20531;-70
2022/08/05 00:19:43;;;;;;;7.13;1.95;;;18.70;99.90;;;;;;5039968;28;20036;-70
2022/08/05 00:22:08;;;;;;;5.97;2.17;;;18.70;99.90;;;;;;5074232;28;20119;-70
2022/08/05 00:24:34;;;;;;;5.95;2.60;;;18.70;99.90;;;;;;5073978;28;20032;-70
2022/08/05 00:27:01;;;;;;;6.47;2.40;;;18.50;99.90;;;;;;5074296;28;20055;-70
2022/08/05 00:29:26;;;;;;;6.07;2.40;;;18.60;99.90;;;;;;5056555;28;20517;-69
2022/08/05 00:31:53;;;;;;;5.10;2.03;;;18.60;99.90;;;;;;5073951;28;20115;-70
2022/08/05 00:34:18;;;;;;;13.63;2.63;;;18.40;99.90;;;;;;5056126;28;20483;-69
2022/08/05 00:36:44;;;;;;;4.60;2.15;;;18.30;99.90;;;;;;5073752;28;20044;-69
2022/08/05 00:39:10;;;;;;;8.10;2.40;;;18.90;99.90;;;;;;5074081;28;20126;-69
2022/08/05 00:41:36;;;;;;;4.78;1.98;;;18.20;99.90;;;;;;5074046;28;20051;-69
2022/08/05 00:44:02;;;;;;;7.00;2.53;;;18.50;99.90;;;;;;5073633;28;20477;-69
2022/08/05 00:46:27;;;;;;;4.10;1.75;;;18.40;99.90;;;;;;5073992;28;20392;-69
2022/08/05 00:48:53;;;;;;;5.50;2.10;;;18.40;99.90;;;;;;5055763;28;20037;-69
2022/08/05 00:51:20;;;;;;;4.40;1.80;;;19.70;99.90;;;;;;5055461;28;20127;-69
2022/08/05 00:53:46;;;;;;;3.72;1.80;;;18.50;99.90;;;;;;5073667;28;20032;-69
2022/08/05 00:56:14;;;;;;;5.15;2.00;;;18.50;99.90;;;;;;5055582;28;20120;-69
2022/08/05 00:58:40;;;;;;;3.95;1.95;;;18.60;99.90;;;;;;5055828;28;20135;-69
2022/08/05 01:01:06;;;;;;;4.30;1.77;;;18.10;99.90;;;;;;5073693;28;20533;-69
2022/08/05 01:03:31;;;;;;;8.55;2.50;;;18.80;99.90;;;;;;5055476;28;20093;-70
2022/08/05 01:05:57;;;;;;;6.78;2.40;;;18.90;99.90;;;;;;5055162;28;20123;-70
2022/08/05 01:08:23;;;;;;;3.63;1.90;;;19.60;99.90;;;;;;5038934;28;20123;-69
2022/08/05 01:10:53;;;;;;;10.13;2.45;;;18.60;99.90;;;;;;5073381;28;20128;-69
2022/08/05 01:14:03;;;;;;;6.80;2.15;;;20.00;99.90;;;;;;5055081;28;20028;-69
2022/08/05 01:16:41;;;;;;;3.08;2.13;;;18.80;99.90;;;;;;5069987;28;20510;-69
2022/08/05 01:19:39;;;;;;;6.80;1.90;;;18.60;99.90;;;;;;5055201;28;20052;-69
2022/08/05 01:22:25;;;;;;;3.92;2.03;;;18.70;99.90;;;;;;5038851;28;20040;-70
2022/08/05 01:25:04;;;;;;;8.13;2.38;;;18.80;99.90;;;;;;5054723;28;20044;-69
2022/08/05 01:27:51;;;;;;;5.85;2.45;;;19.00;99.90;;;;;;5055392;28;20451;-69
2022/08/05 01:30:17;;;;;;;6.88;2.78;;;18.70;99.90;;;;;;5054938;28;20502;-69
2022/08/05 01:32:46;;;;;;;6.75;2.97;;;18.60;99.90;;;;;;5054845;28;20028;-70
2022/08/05 01:35:16;;;;;;;4.47;2.50;;;19.60;99.90;;;;;;5054597;28;20055;-70
2022/08/05 01:37:49;;;;;;;6.50;2.50;;;18.80;99.90;;;;;;5073375;28;20060;-70
2022/08/05 01:40:15;;;;;;;;;;;19.00;99.90;;;;;;5073791;28;20405;-70
2022/08/05 01:42:43;;;;;;;4.03;2.10;;;19.40;99.90;;;;;;5038619;28;20374;-70
2022/08/05 01:45:09;;;;;;;4.28;2.20;;;18.60;99.90;;;;;;5038127;28;20440;-70
2022/08/05 01:47:37;;;;;;;7.32;2.22;;;18.70;99.90;;;;;;5072485;28;20033;-69
2022/08/05 01:50:07;;;;;;;5.25;1.80;;;18.60;99.90;;;;;;5073002;28;20072;-69
2022/08/05 01:52:37;;;;;;;4.13;2.35;;;18.60;99.90;;;;;;5037715;28;20123;-69
2022/08/05 01:55:06;;;;;;;5.45;2.45;;;18.50;99.90;;;;;;5072163;28;20047;-69
2022/08/05 01:57:36;;;;;;;5.88;2.95;;;18.60;99.90;;;;;;5054357;28;20128;-69
2022/08/05 02:00:04;;;;;;;9.35;3.28;;;18.70;99.90;;;;;;5054036;28;20048;-69
2022/08/05 02:02:31;;;;;;;7.90;2.60;;;18.60;99.90;;;;;;5054271;28;20044;-69
2022/08/05 02:05:06;;;;;;;7.32;2.40;;;19.40;99.90;;;;;;5072515;28;20079;-69
2022/08/05 02:07:33;;;;;;;6.38;2.40;;;18.60;99.90;;;;;;5072434;28;20041;-69
2022/08/05 02:09:58;;;;;;;5.05;2.05;;;19.60;99.90;;;;;;5072267;28;20037;-69
2022/08/05 02:12:44;;;;;;;6.75;2.95;;;18.60;99.90;;;;;;5071783;28;20428;-69
2022/08/05 02:15:34;;;;;;;5.93;2.60;;;18.40;99.90;;;;;;5037457;28;20458;-69
2022/08/05 02:18:05;;;;;;;7.57;2.85;;;18.50;99.90;;;;;;5072225;28;20082;-69
2022/08/05 02:20:38;;;;;;;6.10;2.47;;;18.30;99.90;;;;;;5054384;28;20502;-69
2022/08/05 02:23:05;;;;;;;;;;;18.80;99.90;;;;;;5038040;28;20409;-69
2022/08/05 02:25:34;;;;;;;4.97;3.10;;;18.30;99.90;;;;;;5053902;28;19991;-70
2022/08/05 02:28:01;;;;;;;6.72;2.90;;;18.10;99.90;;;;;;5053847;28;20055;-69
2022/08/05 02:30:33;;;;;;;6.80;3.20;;;18.30;99.90;;;;;;5071970;28;20079;-69
2022/08/05 02:33:01;;;;;;;4.50;2.65;;;18.20;99.90;;;;;;5071650;28;20037;-69
2022/08/05 02:35:28;;;;;;;7.53;3.38;;;18.20;99.90;;;;;;5071517;28;20111;-69
2022/08/05 02:37:55;;;;;;;6.55;2.83;;;18.50;99.90;;;;;;5071582;28;20497;-69
2022/08/05 02:40:23;;;;;;;4.53;2.70;;;19.40;99.90;;;;;;5071645;28;20048;-68
2022/08/05 02:42:50;;;;;;;7.38;2.60;;;18.20;99.90;;;;;;5053904;28;20447;-69
2022/08/05 02:45:17;;;;;;;6.00;3.22;;;18.40;99.90;;;;;;5053372;28;20089;-69
2022/08/05 02:47:45;;;;;;;6.20;4.55;;;18.60;99.90;;;;;;5053988;28;20067;-70
2022/08/05 02:50:12;;;;;;;4.20;3.08;;;19.50;99.90;;;;;;5053463;28;20052;-69
2022/08/05 02:52:40;;;;;;;8.60;4.25;;;18.60;99.90;;;;;;5053357;28;20029;-69
2022/08/05 02:55:07;;;;;;;8.45;4.32;;;19.70;99.90;;;;;;5053476;28;20402;-70
2022/08/05 02:57:34;;;;;;;5.60;3.70;;;18.20;99.90;;;;;;5071658;28;20044;-69
2022/08/05 03:00:01;;;;;;;7.50;3.40;;;18.10;99.90;;;;;;5071629;28;20390;-69
2022/08/05 03:02:32;;;;;;;7.50;4.20;;;18.00;99.90;;;;;;5071544;28;20124;-69
2022/08/05 03:05:00;;;;;;;7.95;3.75;;;18.20;99.90;;;;;;5053030;28;20045;-69
2022/08/05 03:07:27;;;;;;;8.45;4.05;;;18.90;99.90;;;;;;5071384;28;20063;-69
2022/08/05 03:09:53;;;;;;;8.27;3.63;;;17.90;99.90;;;;;;5053174;28;20037;-69
2022/08/05 03:12:32;;;;;;;4.55;3.28;;;18.90;99.90;;;;;;5055079;28;20036;-69
2022/08/05 03:14:58;;;;;;;6.47;3.60;;;18.10;99.90;;;;;;5057151;28;20036;-69
2022/08/05 03:17:24;;;;;;;7.88;3.42;;;18.10;99.90;;;;;;5057513;28;20033;-69
2022/08/05 03:19:49;;;;;;;7.43;3.13;;;18.10;99.90;;;;;;5057460;28;20036;-69
2022/08/05 03:22:15;;;;;;;7.50;4.32;;;18.00;99.90;;;;;;5075437;28;20072;-69
2022/08/05 03:24:43;;;;;;;5.53;3.50;;;18.20;99.90;;;;;;5075171;28;20044;-69
2022/08/05 03:27:09;;;;;;;5.00;3.30;;;18.20;99.90;;;;;;5057571;28;20402;-69
2022/08/05 03:29:35;;;;;;;5.30;3.58;;;19.40;99.90;;;;;;5040429;28;20040;-69
2022/08/05 03:32:02;;;;;;;7.18;3.80;;;18.10;99.90;;;;;;5040343;28;20039;-70
2022/08/05 03:34:28;;;;;;;8.15;3.78;;;18.00;99.90;;;;;;5075000;28;20040;-69
2022/08/05 03:36:53;;;;;;;6.22;3.88;;;17.90;99.90;;;;;;5057111;28;20386;-69
2022/08/05 03:39:19;;;;;;;6.20;4.13;;;19.30;99.90;;;;;;5057072;28;20512;-69
2022/08/05 03:41:44;;;;;;;8.30;4.22;;;18.40;99.90;;;;;;5075033;28;20037;-70
2022/08/05 03:44:10;;;;;;;6.28;3.78;;;18.20;99.90;;;;;;5056630;28;20090;-69
2022/08/05 03:46:36;;;;;;;6.10;4.53;;;18.30;99.90;;;;;;5075074;28;20046;-69
2022/08/05 03:49:01;;;;;;;7.13;4.00;;;18.10;99.90;;;;;;5074993;28;20040;-69
2022/08/05 03:51:37;;;;;;;6.20;4.80;;;19.40;99.90;;;;;;5056978;28;20681;-69
2022/08/05 03:54:12;;;;;;;8.75;4.10;;;17.90;99.90;;;;;;5056667;28;20051;-69
2022/08/05 03:56:41;;;;;;;5.38;4.40;;;19.30;99.90;;;;;;5074723;28;20036;-69
2022/08/05 03:59:12;;;;;;;7.55;5.63;;;18.10;99.90;;;;;;5040133;28;20047;-70
2022/08/05 04:01:42;;;;;;;9.20;5.28;;;18.00;99.90;;;;;;5056679;28;20093;-69
2022/08/05 04:04:11;;;;;;;5.28;4.72;;;17.70;99.90;;;;;;5039889;28;20059;-70
2022/08/05 04:06:37;;;;;;;7.85;4.90;;;17.80;99.90;;;;;;5074536;28;20082;-69
2022/08/05 04:09:04;;;;;;;6.28;4.55;;;17.90;99.90;;;;;;5039757;28;20044;-70
2022/08/05 04:11:31;;;;;;;7.40;4.88;;;18.10;99.90;;;;;;5056089;28;20036;-69
2022/08/05 04:13:57;;;;;;;5.75;4.63;;;17.80;99.90;;;;;;5074358;28;20122;-69
2022/08/05 04:16:23;;;;;;;6.70;4.25;;;18.80;99.90;;;;;;5056529;28;20481;-69
2022/08/05 04:18:49;;;;;;;6.03;4.70;;;17.70;99.90;;;;;;5056509;28;20067;-69
2022/08/05 04:21:15;;;;;;;5.90;4.65;;;17.70;99.90;;;;;;5056567;28;20049;-69
2022/08/05 04:23:42;;;;;;;5.53;4.70;;;17.90;99.90;;;;;;5055630;28;20528;-70
2022/08/05 04:26:08;;;;;;;9.35;4.38;;;17.80;99.90;;;;;;5073956;28;20044;-70
2022/08/05 04:28:33;;;;;;;7.75;4.45;;;18.10;99.90;;;;;;5056100;28;20127;-69
2022/08/05 04:30:59;;;;;;;7.10;4.38;;;19.10;99.90;;;;;;5056037;28;20478;-69
2022/08/05 04:33:25;;;;;;;7.93;4.22;;;17.70;99.90;;;;;;5055928;28;20028;-69
2022/08/05 04:35:51;;;;;;;6.80;4.20;;;17.70;99.90;;;;;;5073715;28;20131;-69
2022/08/05 04:38:16;;;;;;;4.72;3.65;;;17.70;99.90;;;;;;5056138;28;20124;-69
2022/08/05 04:40:42;;;;;;;7.15;3.83;;;17.60;99.90;;;;;;5055772;28;20485;-69
2022/08/05 04:43:08;;;;;;;6.93;3.85;;;17.60;99.90;;;;;;5073854;28;20056;-69
2022/08/05 04:45:34;;;;;;;4.70;3.72;;;17.70;99.90;;;;;;5073561;28;20040;-69
2022/08/05 04:48:08;;;;;;;8.82;4.07;;;17.80;99.90;;;;;;5055728;28;20559;-70
2022/08/05 04:50:39;;;;;;;7.55;3.70;;;17.50;99.90;;;;;;5055793;28;20040;-69
2022/08/05 04:53:05;;;;;;;8.00;4.38;;;17.50;99.90;;;;;;5055676;28;20408;-69
2022/08/05 04:55:31;;;;;;;5.68;3.78;;;17.70;99.90;;;;;;5054850;28;20084;-69
2022/08/05 04:57:56;;;;;;;7.15;3.80;;;17.70;99.90;;;;;;5073477;28;20071;-69
2022/08/05 05:00:22;;;;;;;5.65;3.40;;;17.70;99.90;;;;;;5055541;28;20041;-69
2022/08/05 05:02:48;;;;;;;7.88;3.88;;;17.70;99.90;;;;;;5038868;28;20573;-70
2022/08/05 05:05:13;;;;;;;5.55;3.72;;;17.60;99.90;;;;;;5055487;28;20387;-70
2022/08/05 05:07:39;;;;;;;7.68;4.72;;;17.50;99.90;;;;;;5055294;28;20037;-70
2022/08/05 05:10:05;;;;;;;5.10;3.38;;;17.60;99.90;;;;;;5055620;28;20121;-70
2022/08/05 05:12:31;;;;;;;5.80;3.25;;;17.50;99.90;;;;;;5076158;22;20403;-72
2022/08/05 05:14:56;;;;;;;4.32;3.30;;;17.70;99.90;;;;;;5051626;28;20136;-72
2022/08/05 05:17:22;;;;;;;4.75;3.40;;;18.10;99.90;;;;;;5052347;28;20036;-72
2022/08/05 05:19:48;;;;;;;7.35;3.90;;;17.60;99.90;;;;;;5052363;28;20502;-72
2022/08/05 05:22:13;;;;;;;6.40;3.20;;;17.30;99.90;;;;;;5053135;28;20052;-71
2022/08/05 05:24:39;;;;;;;7.32;3.30;;;17.60;99.90;;;;;;5053502;28;20037;-72
2022/08/05 05:27:04;;;;;;;4.68;3.65;;;17.50;99.90;;;;;;5052400;28;20486;-72
2022/08/05 05:29:30;;;;;;;6.35;3.85;;;17.50;99.90;;;;;;5035643;28;20045;-72
2022/08/05 05:31:55;;;;;;;4.80;3.58;;;17.50;99.90;;;;;;5035095;28;20077;-72
2022/08/05 05:34:21;;;;;;;5.13;3.33;;;17.40;99.90;;;;;;5052716;28;20041;-72
2022/08/05 05:36:47;;;;;;;5.25;3.45;;;17.50;99.90;;;;;;5051029;28;20596;-72
2022/08/05 05:39:13;;;;;;;5.88;3.58;;;18.90;99.90;;;;;;5053455;28;20079;-72
2022/08/05 05:41:39;;;;;;;7.60;3.55;;;17.70;99.90;;;;;;5051960;28;20043;-71
2022/08/05 05:44:04;;;;;;;5.95;4.47;;;17.40;99.90;;;;;;5051341;28;20072;-72
2022/08/05 05:46:30;;;;;;;8.70;3.67;;;17.60;99.90;;;;;;5051929;28;20036;-72
2022/08/05 05:48:56;;;;;;;6.05;3.72;;;17.60;99.90;;;;;;5052891;28;20036;-72
2022/08/05 05:51:23;;;;;;;6.45;3.53;;;17.80;99.90;;;;;;5051556;28;20072;-72
2022/08/05 05:53:51;;;;;;;4.72;3.47;;;17.80;99.90;;;;;;5051121;28;20041;-71
2022/08/05 05:56:19;;;;;;;4.32;2.60;;;17.90;99.90;;;;;;5046427;28;20040;-72
2022/08/05 05:58:47;;;;;;;5.03;3.20;;;18.00;99.90;;;;;;5071431;28;20128;-72
2022/08/05 06:01:14;;;;;;;3.25;2.70;;;18.00;99.90;;;;;;5071060;28;20036;-72
2022/08/05 06:03:40;;;;;;;7.95;3.45;;;17.90;99.90;;;;;;5072562;28;20413;-72
2022/08/05 06:06:06;;;;;;;5.35;2.80;;;18.20;99.90;;;;;;5072090;28;20452;-72
2022/08/05 06:08:32;;;;;;;4.28;2.67;;;18.20;99.90;;;;;;5071259;28;20089;-72
2022/08/05 06:10:58;;;;;;;5.50;2.78;;;18.40;99.90;;;;;;5072903;28;20504;-72
2022/08/05 06:13:23;;;;;;;7.40;2.67;;;18.30;99.90;;;;;;5061761;28;20037;-72
2022/08/05 06:15:49;;;;;;;5.45;2.88;;;18.40;99.90;;;;;;5052735;28;20491;-72
2022/08/05 06:18:14;;;;;;;5.10;2.63;;;18.50;99.90;;;;;;5054462;28;20449;-72
2022/08/05 06:20:40;;;;;;;5.22;2.60;;;18.90;99.90;;;;;;5055654;28;20045;-72
2022/08/05 06:23:05;;;;;;;3.63;2.53;;;18.50;99.90;;;;;;5050640;28;20032;-72
2022/08/05 06:25:31;;;;;;;3.30;1.98;;;18.70;99.90;;;;;;5047243;28;20051;-72
2022/08/05 06:27:56;;;;;;;4.25;2.00;;;18.60;99.90;;;;;;5030773;28;20041;-72
2022/08/05 06:30:25;;;;;;;2.33;1.48;;;19.20;99.90;;;;;;5048647;28;20406;-71
2022/08/05 06:32:51;;;;;;;4.85;1.48;;;19.10;99.90;;;;;;5045705;28;20033;-72
2022/08/05 06:35:17;;;;;;;2.38;1.42;;;18.90;99.90;;;;;;5055395;28;20062;-72
2022/08/05 06:37:43;;;;;;;3.30;1.70;;;19.20;99.90;;;;;;5055394;28;20187;-72
2022/08/05 06:40:09;;;;;;;5.10;1.80;;;19.30;99.90;;;;;;5055736;28;20096;-72
2022/08/05 06:42:35;;;;;;;2.65;1.40;;;19.40;99.90;;;;;;5036116;28;20041;-72
2022/08/05 06:45:01;;;;;;;2.55;1.20;;;19.30;99.90;;;;;;5030565;28;20041;-72
2022/08/05 06:47:27;;;;;;;1.40;1.20;;;19.70;99.90;;;;;;5046914;28;20039;-72
2022/08/05 06:50:00;;;;;;;6.00;1.73;;;20.00;99.90;;;;;;5047311;28;20041;-72
2022/08/05 06:52:26;;;;;;;1.92;1.23;;;18.90;99.90;;;;;;5027569;28;20033;-72
2022/08/05 06:54:52;;;;;;;2.50;0.85;;;19.70;99.90;;;;;;5040802;28;20051;-73
2022/08/05 06:57:17;;;;;;;3.80;0.98;;;19.70;99.90;;;;;;5047858;28;20533;-72
2022/08/05 06:59:44;;;;;;;3.60;1.15;;;19.60;99.90;;;;;;5047627;28;20025;-73
2022/08/05 07:02:09;;;;;;;1.50;1.00;;;19.70;99.90;;;;;;5046732;28;20036;-71
2022/08/05 07:04:35;;;;;;;4.05;1.02;;;19.80;99.90;;;;;;5048006;28;20049;-71
2022/08/05 07:07:00;;;;;;;4.43;1.00;;;20.50;99.90;;;;;;5048801;28;20128;-70
2022/08/05 07:09:26;;;;;;;3.67;0.80;;;20.10;99.90;;;;;;5049788;28;20079;-70
2022/08/05 07:11:54;;;;;;;4.10;1.02;;;20.40;99.90;;;;;;5050119;28;20033;-70
2022/08/05 07:17:04;;;;;;;4.78;1.17;;;20.50;99.90;;;;;;5051982;28;20116;-69
2022/08/05 07:19:30;;;;;;;2.88;1.05;;;20.60;99.90;;;;;;5051722;28;20498;-70
2022/08/05 07:21:56;;;;;;;3.97;0.80;;;21.60;99.90;;;;;;5050184;28;20132;-70
2022/08/05 07:24:22;;;;;;;1.95;0.60;;;20.20;99.90;;;;;;5051340;28;20076;-72
2022/08/05 07:26:48;;;;;;;5.53;1.08;;;20.00;99.90;;;;;;5051625;28;20144;-73
2022/08/05 07:29:14;;;;;;;6.97;1.55;;;20.20;99.90;;;;;;5050073;28;20558;-69
2022/08/05 07:31:40;;;;;;;2.70;0.80;;;20.70;99.90;;;;;;5051420;28;20044;-69
2022/08/05 07:34:06;;;;;;;2.97;0.60;;;20.80;99.90;;;;;;5050855;28;20049;-70
2022/08/05 07:36:32;;;;;;;3.75;0.90;;;21.00;99.90;;;;;;5050177;28;20513;-70
2022/08/05 07:39:03;;;;;;;5.78;0.93;;;20.80;99.90;;;;;;5053741;28;20033;-69
2022/08/05 07:41:29;;;;;;;7.88;0.90;;;20.70;99.90;;;;;;5055002;28;20041;-73
2022/08/05 07:43:56;;;;;;;4.53;0.90;;;19.90;99.90;;;;;;5048739;28;20033;-70
2022/08/05 07:46:22;;;;;;;3.03;0.82;;;20.00;99.90;;;;;;5048194;28;20044;-70
2022/08/05 07:48:48;;;;;;;2.58;1.00;;;20.00;99.90;;;;;;5048128;28;20434;-70
2022/08/05 07:51:14;;;;;;;8.40;1.38;;;20.30;99.90;;;;;;5048248;28;20033;-71
2022/08/05 07:53:41;;;;;;;5.25;1.15;;;20.80;99.90;;;;;;5051192;28;20041;-71
2022/08/05 07:56:06;;;;;;;4.22;1.25;;;20.90;99.90;;;;;;5050817;28;20045;-71
2022/08/05 07:58:32;;;;;;;6.53;0.80;;;20.40;99.90;;;;;;5050502;28;20471;-70
2022/08/05 08:00:58;;;;;;;4.03;0.80;;;20.30;99.90;;;;;;5053105;28;20048;-71
2022/08/05 08:03:23;;;;;;;4.35;0.90;;;20.60;99.90;;;;;;5036764;28;20072;-71
2022/08/05 08:05:52;;;;;;;10.05;1.35;;;22.00;99.90;;;;;;5053243;28;20037;-71
2022/08/05 08:08:18;;;;;;;4.15;0.90;;;22.60;99.90;;;;;;5054407;28;20052;-71
2022/08/05 08:10:44;;;;;;;2.75;0.70;;;20.90;99.90;;;;;;5054791;28;20037;-71
2022/08/05 08:13:10;;;;;;;2.33;0.60;;;21.10;99.90;;;;;;5053319;28;20666;-70
2022/08/05 08:15:36;;;;;;;2.13;0.63;;;20.60;99.90;;;;;;5054271;28;20047;-70
2022/08/05 08:18:01;;;;;;;2.85;0.80;;;21.40;99.90;;;;;;5036804;28;20045;-71
2022/08/05 08:20:27;;;;;;;2.60;0.60;;;22.10;99.90;;;;;;5060088;28;20116;-71
2022/08/05 08:22:54;;;;;;;3.17;0.70;;;21.00;99.90;;;;;;5052997;28;20072;-71
2022/08/05 08:25:19;;;;;;;3.47;0.68;;;21.20;99.90;;;;;;5036292;28;20045;-71
2022/08/05 08:27:45;;;;;;;2.83;0.63;;;21.20;99.90;;;;;;5052926;28;20483;-70
2022/08/05 08:30:12;;;;;;;3.33;0.82;;;21.60;99.90;;;;;;5069439;28;20521;-71
2022/08/05 08:32:38;;;;;;;4.20;0.77;;;21.90;99.90;;;;;;5072628;28;20040;-71
2022/08/05 08:35:04;;;;;;;4.78;0.90;;;21.00;99.90;;;;;;5056055;28;20037;-71
2022/08/05 08:37:30;;;;;;;3.53;0.90;;;20.60;99.90;;;;;;5074395;28;20076;-71
2022/08/05 08:39:55;;;;;;;4.97;0.98;;;20.70;99.90;;;;;;5073081;28;20500;-71
2022/08/05 08:42:22;;;;;;;3.88;0.68;;;20.90;99.90;;;;;;5074074;28;20048;-70
2022/08/05 08:44:49;;;;;;;3.70;0.60;;;21.10;99.90;;;;;;5058009;28;20045;-71
2022/08/05 08:47:17;;;;;;;4.55;0.70;;;21.20;99.90;;;;;;5054102;28;20056;-71
2022/08/05 08:49:45;;;;;;;3.22;0.60;;;21.40;99.90;;;;;;5054419;28;20171;-71
2022/08/05 08:52:12;;;;;;;2.00;0.50;;;22.00;99.90;;;;;;5054196;28;20041;-71
2022/08/05 08:54:38;;;;;;;4.05;0.80;;;22.40;99.90;;;;;;5036155;28;20045;-71
2022/08/05 08:57:06;;;;;;;6.53;0.60;;;21.60;99.90;;;;;;5054013;28;20397;-70
2022/08/05 08:59:32;;;;;;;1.13;0.60;;;22.60;99.90;;;;;;5064168;28;20498;-71
2022/08/05 09:01:59;;;;;;;3.28;0.95;;;21.70;99.90;;;;;;5073866;28;20051;-71
2022/08/05 09:04:26;;;;;;;2.35;0.60;;;21.70;99.90;;;;;;5072257;28;20040;-70
2022/08/05 09:06:51;;;;;;;1.35;0.40;;;21.40;99.90;;;;;;5062623;28;20123;-70
2022/08/05 09:09:17;;;;;;;3.85;0.80;;;21.10;99.90;;;;;;5054146;28;20112;-70
2022/08/05 09:11:42;;;;;;;4.50;0.60;;;21.40;99.90;;;;;;5053174;28;20040;-71
2022/08/05 09:14:09;;;;;;;2.65;0.68;;;22.80;99.90;;;;;;5052388;28;20120;-73
2022/08/05 09:16:37;;;;;;;2.67;0.50;;;21.70;99.90;;;;;;5035658;28;20087;-71
2022/08/05 09:19:02;;;;;;;3.65;0.60;;;21.50;99.90;;;;;;5053786;28;20087;-72
2022/08/05 09:21:28;;;;;;;1.65;0.52;;;22.00;99.90;;;;;;5053640;28;20449;-72
2022/08/05 09:24:09;;;;;;;5.25;0.82;;;22.10;99.90;;;;;;5051924;28;20056;-71
2022/08/05 09:26:35;;;;;;;2.72;0.43;;;22.00;99.90;;;;;;5053775;28;20040;-72
2022/08/05 09:29:04;;;;;;;2.50;0.68;;;21.70;99.80;;;;;;5044920;28;20052;-72
2022/08/05 09:31:31;;;;;;;1.67;0.40;;;22.00;97.90;;;;;;5042654;28;20091;-71
2022/08/05 09:34:00;;;;;;;0.40;0.20;;;21.40;97.00;;;;;;5050368;28;20476;-71
2022/08/05 09:36:51;;;;;;;0.45;0.30;;;22.20;96.80;;;;;;5058244;28;20120;-72
2022/08/05 09:39:18;;;;;;;3.05;0.60;;;21.40;95.30;;;;;;5060018;28;20044;-71
2022/08/05 09:41:59;;;;;;;4.10;0.40;;;21.40;95.00;;;;;;5040525;28;20108;-72
2022/08/05 09:44:41;;;;;;;1.15;0.35;;;21.80;95.70;;;;;;5043869;28;20083;-72
2022/08/05 09:47:26;;;;;;;2.10;0.40;;;21.60;95.50;;;;;;5041322;28;20084;-73
2022/08/05 09:49:56;;;;;;;1.00;0.40;;;21.70;96.10;;;;;;5031911;28;20368;-72
2022/08/05 09:52:26;;;;;;;0.73;0.30;;;22.60;96.50;;;;;;5046828;28;20040;-71
2022/08/05 09:54:59;;;;;;;2.85;0.50;;;21.70;95.60;;;;;;5033665;28;20392;-72
2022/08/05 09:57:32;;;;;;;0.80;0.40;;;21.70;95.10;;;;;;5018335;28;20450;-72
2022/08/05 10:00:03;;;;;;;2.55;0.28;;;21.70;94.90;;;;;;5052480;28;20041;-72
2022/08/05 10:02:34;;;;;;;0.40;0.20;;;22.00;94.90;;;;;;5051152;28;20060;-72
2022/08/05 10:05:05;;;;;;;0.20;0.20;;;21.80;95.10;;;;;;5052519;28;20120;-71
2022/08/05 10:07:56;;;;;;;2.38;0.30;;;21.80;95.60;;;;;;5057748;28;20040;-72
2022/08/05 10:10:31;;;;;;;0.75;0.25;;;21.80;93.90;;;;;;5066616;28;20571;-73
2022/08/05 10:12:59;;;;;;;3.63;0.40;;;22.20;93.70;;;;;;5051363;28;20041;-72
2022/08/05 10:15:34;;;;;;;2.90;0.30;;;22.70;94.40;;;;;;5048382;28;20048;-73
2022/08/05 10:18:12;;;;;;;4.15;0.45;;;23.40;94.40;;;;;;5052007;28;20037;-73
2022/08/05 10:20:42;;;;;;;1.00;0.30;;;22.10;94.70;;;;;;5014796;28;20517;-73
2022/08/05 10:23:14;;;;;;;1.27;0.50;;;23.60;95.40;;;;;;5031043;28;20049;-73
2022/08/05 10:25:39;;;;;;;0.55;0.30;;;23.20;95.00;;;;;;5041401;28;20051;-73
2022/08/05 10:28:06;;;;;;;0.35;0.20;;;22.70;95.30;;;;;;5047465;28;20032;-71
2022/08/05 10:30:32;;;;;;;1.17;0.30;;;23.50;94.80;;;;;;5045425;28;20041;-71
2022/08/05 10:32:58;;;;;;;2.88;0.50;;;22.40;94.50;;;;;;5040723;28;20029;-71
2022/08/05 10:35:24;;;;;;;1.30;0.32;;;22.80;95.00;;;;;;5044035;28;20429;-71
2022/08/05 10:37:51;;;;;;;2.28;0.50;;;22.30;95.10;;;;;;5038702;28;20064;-71
2022/08/05 10:40:37;;;;;;;1.30;0.40;;;22.10;94.90;;;;;;5050181;28;20033;-70
2022/08/05 10:43:29;;;;;;;1.17;0.32;;;22.50;94.90;;;;;;5057264;28;20109;-70
2022/08/05 10:45:56;;;;;;;4.25;0.43;;;22.40;94.40;;;;;;5031623;28;20041;-71
2022/08/05 10:48:39;;;;;;;1.35;0.22;;;22.20;94.60;;;;;;5024178;28;20055;-71
2022/08/05 10:51:13;;;;;;;1.35;0.43;;;22.30;94.40;;;;;;5051277;28;20112;-72
2022/08/05 10:53:41;;;;;;;0.65;0.22;;;21.90;95.30;;;;;;5032975;28;20041;-71
2022/08/05 10:56:15;;;;;;;2.97;0.45;;;24.10;96.00;;;;;;5050409;28;20106;-71
2022/08/05 10:58:53;;;;;;;1.63;0.40;;;22.40;95.00;;;;;;5050303;28;20033;-71
2022/08/05 11:01:43;;;;;;;1.83;0.28;;;22.50;95.40;;;;;;5050165;28;20029;-71
2022/08/05 11:04:10;;;;;;;2.00;0.30;;;22.00;95.30;;;;;;5049956;28;20037;-71
2022/08/05 11:06:59;;;;;;;2.25;0.50;;;22.50;96.10;;;;;;5051404;28;20048;-71
2022/08/05 11:09:48;;;;;;;2.47;0.47;;;22.30;95.60;;;;;;5041023;28;20045;-71
2022/08/05 11:12:41;;;;;;;3.20;0.40;;;21.80;95.60;;;;;;5052116;28;20037;-73
2022/08/05 11:15:09;;;;;;;3.45;0.40;;;21.50;95.50;;;;;;5029175;28;20060;-74
2022/08/05 11:17:37;;;;;;;1.42;0.30;;;21.30;95.50;;;;;;5049256;28;20041;-73
2022/08/05 11:20:27;;;;;;;0.73;0.35;;;21.60;96.20;;;;;;5051202;28;20033;-74
2022/08/05 11:22:53;;;;;;;2.00;0.50;;;21.90;96.10;;;;;;5050133;28;20045;-73
2022/08/05 11:25:34;;;;;;;2.80;0.73;;;22.40;96.40;;;;;;5033550;28;20087;-74
2022/08/05 11:28:10;;;;;;;3.28;0.30;;;22.40;96.00;;;;;;5050510;28;20063;-74
2022/08/05 11:30:54;;;;;;;2.50;0.45;;;22.10;95.70;;;;;;5034007;28;20041;-74
2022/08/05 11:33:30;;;;;;;2.33;0.43;;;22.50;95.90;;;;;;5034050;28;20041;-74
2022/08/05 11:35:59;;;;;;;1.13;0.47;;;21.90;96.10;;;;;;5037657;28;20447;-74
2022/08/05 11:38:42;;;;;;;2.78;0.40;;;21.40;95.90;;;;;;5055653;28;20037;-73
2022/08/05 11:41:24;;;;;;;2.47;0.35;;;22.60;96.80;;;;;;5054176;28;20041;-74
2022/08/05 11:43:59;;;;;;;1.88;0.60;;;21.40;96.50;;;;;;5048311;28;20041;-74
2022/08/05 11:46:30;;;;;;;1.13;0.30;;;21.40;96.40;;;;;;5035681;28;20051;-73
2022/08/05 11:48:57;;;;;;;3.70;0.43;;;21.30;96.20;;;;;;5034231;28;20048;-74
2022/08/05 11:51:24;;;;;;;2.20;0.40;;;21.80;96.80;;;;;;5034291;28;20394;-74
2022/08/05 11:53:50;;;;;;;2.38;0.95;;;21.60;95.70;;;;;;5033644;28;20040;-74
2022/08/05 11:56:16;;;;;;;4.03;0.50;;;21.20;95.40;;;;;;5035308;28;20052;-74
2022/08/05 11:58:44;;;;;;;4.13;0.50;;;21.70;96.30;;;;;;5017262;28;20406;-73
2022/08/05 12:01:11;;;;;;;0.88;0.32;;;22.00;96.40;;;;;;5033743;28;20047;-74
2022/08/05 12:03:44;;;;;;;1.85;0.38;;;21.80;96.80;;;;;;5033729;28;20046;-74
2022/08/05 12:06:11;;;;;;;1.10;0.28;;;21.80;96.70;;;;;;5017399;28;20048;-74
2022/08/05 12:08:51;;;;;;;1.10;0.35;;;21.40;96.60;;;;;;5017588;28;20438;-74
2022/08/05 12:11:27;;;;;;;3.50;0.50;;;21.70;96.90;;;;;;5033611;28;20133;-74
2022/08/05 12:14:01;;;;;;;2.92;0.35;;;21.80;96.60;;;;;;5034845;28;20096;-73
2022/08/05 12:16:30;;;;;;;1.05;0.40;;;21.10;95.70;;;;;;5034070;28;20064;-73
2022/08/05 12:18:56;;;;;;;0.95;0.50;;;21.70;96.50;;;;;;5033651;28;20037;-74
2022/08/05 12:21:24;;;;;;;2.30;0.43;;;21.80;96.50;;;;;;5051048;28;20099;-74
2022/08/05 12:24:06;;;;;;;2.33;0.32;;;21.80;96.50;;;;;;5057643;28;20045;-76
2022/08/05 12:26:34;;;;;;;1.33;0.43;;;21.70;96.30;;;;;;5055458;28;20041;-75
2022/08/05 12:29:00;;;;;;;3.08;0.40;;;21.60;96.60;;;;;;5053527;28;20128;-75
2022/08/05 12:31:25;;;;;;;0.85;0.30;;;21.60;96.40;;;;;;5032603;28;20509;-75
2022/08/05 12:33:53;;;;;;;2.47;0.47;;;21.90;96.10;;;;;;5051033;28;20041;-75
2022/08/05 12:36:20;;;;;;;0.65;0.28;;;22.10;96.10;;;;;;5054475;28;20068;-76
2022/08/05 12:38:45;;;;;;;3.22;0.43;;;21.90;95.90;;;;;;5053096;28;20039;-74
2022/08/05 12:41:12;;;;;;;2.13;0.45;;;21.50;96.00;;;;;;5053102;28;20580;-73
2022/08/05 12:43:59;;;;;;;2.00;0.50;;;21.40;95.90;;;;;;5054065;28;20120;-73
2022/08/05 12:46:29;;;;;;;1.88;0.60;;;21.50;96.50;;;;;;5053931;28;20405;-74
2022/08/05 12:49:00;;;;;;;5.07;0.65;;;22.00;96.80;;;;;;5036381;28;20585;-74
2022/08/05 12:51:30;;;;;;;2.20;0.40;;;22.00;96.30;;;;;;5035997;28;20044;-74
2022/08/05 12:54:03;;;;;;;2.00;0.38;;;21.70;96.30;;;;;;5053958;28;20041;-73
2022/08/05 12:56:30;;;;;;;1.52;0.40;;;21.80;95.70;;;;;;5053015;28;20029;-73
2022/08/05 12:59:13;;;;;;;2.13;0.50;;;21.50;95.90;;;;;;5069316;28;20069;-73